sensor_id;sensor_type;location;lat;lon;timestamp;temperature;humidity
25138;DHT22;13112;50.986;4.354;2022-07-05T00:00:45;15.70;99.90
25138;DHT22;13112;50.986;4.354;2022-07-05T00:03:12;15.70;99.90
25138;DHT22;13112;50.986;4.354;2022-07-05T00:05:38;15.60;99.90
25138;DHT22;13112;50.986;4.354;2022-07-05T00:08:05;15.60;99.90
25138;DHT22;13112;50.986;4.354;2022-07-05T00:10:32;15.50;99.90
25138;DHT22;13112;50.986;4.354;2022-07-05T00:12:58;15.50;99.90
25138;DHT22;13112;50.986;4.354;2022-07-05T00:15:23;15.40;99.90
25138;DHT22;13112;50.986;4.354;2022-07-05T00:17:49;15.40;99.90
25138;DHT22;13112;50.986;4.354;2022-07-05T00:20:15;15.40;99.90
25138;DHT22;13112;50.986;4.354;2022-07-05T00:22:41;15.40;99.90
25138;DHT22;13112;50.986;4.354;2022-07-05T00:25:07;15.40;99.90
25138;DHT22;13112;50.986;4.354;2022-07-05T00:27:33;15.40;99.90
25138;DHT22;13112;50.986;4.354;2022-07-05T00:29:58;15.30;99.90
25138;DHT22;13112;50.986;4.354;2022-07-05T00:32:24;15.30;99.90
25138;DHT22;13112;50.986;4.354;2022-07-05T00:34:50;15.30;99.90
25138;DHT22;13112;50.986;4.354;2022-07-05T00:37:15;15.30;99.90
25138;DHT22;13112;50.986;4.354;2022-07-05T00:39:41;15.30;99.90
25138;DHT22;13112;50.986;4.354;2022-07-05T00:42:07;15.20;99.90
25138;DHT22;13112;50.986;4.354;2022-07-05T00:44:35;15.10;99.90
25138;DHT22;13112;50.986;4.354;2022-07-05T00:47:06;15.10;99.90
25138;DHT22;13112;50.986;4.354;2022-07-05T00:49:33;15.10;99.90
25138;DHT22;13112;50.986;4.354;2022-07-05T00:51:59;15.00;99.90
25138;DHT22;13112;50.986;4.354;2022-07-05T00:54:26;15.00;99.90
25138;DHT22;13112;50.986;4.354;2022-07-05T00:56:53;14.90;99.90
25138;DHT22;13112;50.986;4.354;2022-07-05T00:59:18;14.70;99.90
25138;DHT22;13112;50.986;4.354;2022-07-05T01:01:44;14.60;99.90
25138;DHT22;13112;50.986;4.354;2022-07-05T01:04:11;14.60;99.90
25138;DHT22;13112;50.986;4.354;2022-07-05T01:06:41;14.70;99.90
25138;DHT22;13112;50.986;4.354;2022-07-05T01:09:10;14.70;99.90
25138;DHT22;13112;50.986;4.354;2022-07-05T01:11:38;14.70;99.90
25138;DHT22;13112;50.986;4.354;2022-07-05T01:14:05;14.70;99.90
25138;DHT22;13112;50.986;4.354;2022-07-05T01:16:37;14.70;99.90
25138;DHT22;13112;50.986;4.354;2022-07-05T01:19:05;14.60;99.90
25138;DHT22;13112;50.986;4.354;2022-07-05T01:21:33;14.60;99.90
25138;DHT22;13112;50.986;4.354;2022-07-05T01:24:00;14.50;99.90
25138;DHT22;13112;50.986;4.354;2022-07-05T01:26:26;14.60;99.90
25138;DHT22;13112;50.986;4.354;2022-07-05T01:28:52;14.60;99.90
25138;DHT22;13112;50.986;4.354;2022-07-05T01:31:17;14.60;99.90
25138;DHT22;13112;50.986;4.354;2022-07-05T01:33:43;14.60;99.90
25138;DHT22;13112;50.986;4.354;2022-07-05T01:36:11;14.60;99.90
25138;DHT22;13112;50.986;4.354;2022-07-05T01:38:37;14.60;99.90
25138;DHT22;13112;50.986;4.354;2022-07-05T01:41:03;14.60;99.90
25138;DHT22;13112;50.986;4.354;2022-07-05T01:43:29;14.60;99.90
25138;DHT22;13112;50.986;4.354;2022-07-05T01:45:56;14.50;99.90
25138;DHT22;13112;50.986;4.354;2022-07-05T01:48:26;14.40;99.90
25138;DHT22;13112;50.986;4.354;2022-07-05T01:51:00;14.40;99.90
25138;DHT22;13112;50.986;4.354;2022-07-05T01:53:30;14.40;99.90
25138;DHT22;13112;50.986;4.354;2022-07-05T01:56:00;14.40;99.90
25138;DHT22;13112;50.986;4.354;2022-07-05T01:58:27;14.40;99.90
25138;DHT22;13112;50.986;4.354;2022-07-05T02:00:54;14.50;99.90
25138;DHT22;13112;50.986;4.354;2022-07-05T02:03:19;14.50;99.90
25138;DHT22;13112;50.986;4.354;2022-07-05T02:05:46;14.50;99.90
25138;DHT22;13112;50.986;4.354;2022-07-05T02:08:12;14.50;99.90
25138;DHT22;13112;50.986;4.354;2022-07-05T02:10:39;14.30;99.90
25138;DHT22;13112;50.986;4.354;2022-07-05T02:13:05;14.10;99.90
25138;DHT22;13112;50.986;4.354;2022-07-05T02:15:36;14.20;99.90
25138;DHT22;13112;50.986;4.354;2022-07-05T02:18:03;14.20;99.90
25138;DHT22;13112;50.986;4.354;2022-07-05T02:20:30;14.20;99.90
25138;DHT22;13112;50.986;4.354;2022-07-05T02:22:56;14.30;99.90
25138;DHT22;13112;50.986;4.354;2022-07-05T02:25:22;14.30;99.90
25138;DHT22;13112;50.986;4.354;2022-07-05T02:27:48;14.30;99.90
25138;DHT22;13112;50.986;4.354;2022-07-05T02:30:14;13.90;99.90
25138;DHT22;13112;50.986;4.354;2022-07-05T02:32:41;13.70;99.90
25138;DHT22;13112;50.986;4.354;2022-07-05T02:35:08;13.60;99.90
25138;DHT22;13112;50.986;4.354;2022-07-05T02:37:34;13.70;99.90
25138;DHT22;13112;50.986;4.354;2022-07-05T02:40:00;13.90;99.90
25138;DHT22;13112;50.986;4.354;2022-07-05T02:42:26;14.00;99.90
25138;DHT22;13112;50.986;4.354;2022-07-05T02:44:51;14.10;99.90
25138;DHT22;13112;50.986;4.354;2022-07-05T02:47:17;14.10;99.90
25138;DHT22;13112;50.986;4.354;2022-07-05T02:49:43;14.10;99.90
25138;DHT22;13112;50.986;4.354;2022-07-05T02:52:09;14.00;99.90
25138;DHT22;13112;50.986;4.354;2022-07-05T02:54:34;14.00;99.90
25138;DHT22;13112;50.986;4.354;2022-07-05T02:57:00;13.90;99.90
25138;DHT22;13112;50.986;4.354;2022-07-05T02:59:26;14.00;99.90
25138;DHT22;13112;50.986;4.354;2022-07-05T03:01:51;13.90;99.90
25138;DHT22;13112;50.986;4.354;2022-07-05T03:04:17;13.90;99.90
25138;DHT22;13112;50.986;4.354;2022-07-05T03:06:43;13.90;99.90
25138;DHT22;13112;50.986;4.354;2022-07-05T03:09:09;13.90;99.90
25138;DHT22;13112;50.986;4.354;2022-07-05T03:11:36;13.90;99.90
25138;DHT22;13112;50.986;4.354;2022-07-05T03:14:02;13.80;99.90
25138;DHT22;13112;50.986;4.354;2022-07-05T03:16:27;13.90;99.90
25138;DHT22;13112;50.986;4.354;2022-07-05T03:18:54;13.80;99.90
25138;DHT22;13112;50.986;4.354;2022-07-05T03:21:20;13.70;99.90
25138;DHT22;13112;50.986;4.354;2022-07-05T03:23:46;13.70;99.90
25138;DHT22;13112;50.986;4.354;2022-07-05T03:26:11;13.70;99.90
25138;DHT22;13112;50.986;4.354;2022-07-05T03:28:37;13.70;99.90
25138;DHT22;13112;50.986;4.354;2022-07-05T03:31:03;13.70;99.90
25138;DHT22;13112;50.986;4.354;2022-07-05T03:33:28;13.70;99.90
25138;DHT22;13112;50.986;4.354;2022-07-05T03:35:54;13.70;99.90
25138;DHT22;13112;50.986;4.354;2022-07-05T03:38:19;13.60;99.90
25138;DHT22;13112;50.986;4.354;2022-07-05T03:40:45;13.60;99.90
25138;DHT22;13112;50.986;4.354;2022-07-05T03:43:11;13.70;99.90
25138;DHT22;13112;50.986;4.354;2022-07-05T03:45:36;13.60;99.90
25138;DHT22;13112;50.986;4.354;2022-07-05T03:48:02;13.60;99.90
25138;DHT22;13112;50.986;4.354;2022-07-05T03:50:28;13.60;99.90
25138;DHT22;13112;50.986;4.354;2022-07-05T03:52:54;13.70;99.90
25138;DHT22;13112;50.986;4.354;2022-07-05T03:55:19;13.60;99.90
25138;DHT22;13112;50.986;4.354;2022-07-05T03:57:45;13.40;99.90
25138;DHT22;13112;50.986;4.354;2022-07-05T04:00:13;13.20;99.90
25138;DHT22;13112;50.986;4.354;2022-07-05T04:02:39;13.00;99.90
25138;DHT22;13112;50.986;4.354;2022-07-05T04:05:05;12.90;99.90
25138;DHT22;13112;50.986;4.354;2022-07-05T04:07:31;12.80;99.90
25138;DHT22;13112;50.986;4.354;2022-07-05T04:09:57;12.80;99.90
25138;DHT22;13112;50.986;4.354;2022-07-05T04:12:22;12.90;99.90
25138;DHT22;13112;50.986;4.354;2022-07-05T04:14:48;13.00;99.90
25138;DHT22;13112;50.986;4.354;2022-07-05T04:17:14;13.20;99.90
25138;DHT22;13112;50.986;4.354;2022-07-05T04:19:39;13.20;99.90
25138;DHT22;13112;50.986;4.354;2022-07-05T04:22:05;13.40;99.90
25138;DHT22;13112;50.986;4.354;2022-07-05T04:24:31;13.60;99.90
25138;DHT22;13112;50.986;4.354;2022-07-05T04:26:56;13.80;99.90
25138;DHT22;13112;50.986;4.354;2022-07-05T04:29:22;13.70;99.90
25138;DHT22;13112;50.986;4.354;2022-07-05T04:31:48;13.70;99.90
25138;DHT22;13112;50.986;4.354;2022-07-05T04:34:14;13.80;99.90
25138;DHT22;13112;50.986;4.354;2022-07-05T04:36:39;14.00;99.90
25138;DHT22;13112;50.986;4.354;2022-07-05T04:39:07;14.10;99.90
25138;DHT22;13112;50.986;4.354;2022-07-05T04:41:33;14.10;99.90
25138;DHT22;13112;50.986;4.354;2022-07-05T04:43:59;14.20;99.90
25138;DHT22;13112;50.986;4.354;2022-07-05T04:46:25;14.40;99.90
25138;DHT22;13112;50.986;4.354;2022-07-05T04:48:50;14.50;99.90
25138;DHT22;13112;50.986;4.354;2022-07-05T04:51:16;14.70;99.90
25138;DHT22;13112;50.986;4.354;2022-07-05T04:53:42;14.90;99.90
25138;DHT22;13112;50.986;4.354;2022-07-05T04:56:08;15.00;99.90
25138;DHT22;13112;50.986;4.354;2022-07-05T04:58:34;15.10;99.90
25138;DHT22;13112;50.986;4.354;2022-07-05T05:01:00;15.30;99.90
25138;DHT22;13112;50.986;4.354;2022-07-05T05:03:26;15.10;99.90
25138;DHT22;13112;50.986;4.354;2022-07-05T05:05:51;14.80;99.90
25138;DHT22;13112;50.986;4.354;2022-07-05T05:08:17;14.60;99.90
25138;DHT22;13112;50.986;4.354;2022-07-05T05:10:43;14.50;99.90
25138;DHT22;13112;50.986;4.354;2022-07-05T05:13:08;14.70;99.90
25138;DHT22;13112;50.986;4.354;2022-07-05T05:15:34;14.90;99.90
25138;DHT22;13112;50.986;4.354;2022-07-05T05:18:00;15.30;99.90
25138;DHT22;13112;50.986;4.354;2022-07-05T05:20:25;15.60;99.90
25138;DHT22;13112;50.986;4.354;2022-07-05T05:22:51;15.80;99.90
25138;DHT22;13112;50.986;4.354;2022-07-05T05:25:17;16.00;99.90
25138;DHT22;13112;50.986;4.354;2022-07-05T05:27:45;16.20;99.90
25138;DHT22;13112;50.986;4.354;2022-07-05T05:30:11;16.40;99.90
25138;DHT22;13112;50.986;4.354;2022-07-05T05:32:38;16.20;99.90
25138;DHT22;13112;50.986;4.354;2022-07-05T05:35:04;16.30;99.90
25138;DHT22;13112;50.986;4.354;2022-07-05T05:37:30;16.60;99.90
25138;DHT22;13112;50.986;4.354;2022-07-05T05:39:55;17.10;99.90
25138;DHT22;13112;50.986;4.354;2022-07-05T05:42:21;17.30;99.90
25138;DHT22;13112;50.986;4.354;2022-07-05T05:44:47;17.60;99.90
25138;DHT22;13112;50.986;4.354;2022-07-05T05:47:12;17.70;99.90
25138;DHT22;13112;50.986;4.354;2022-07-05T05:49:38;17.50;99.90
25138;DHT22;13112;50.986;4.354;2022-07-05T05:52:04;17.50;99.90
25138;DHT22;13112;50.986;4.354;2022-07-05T05:54:30;17.60;99.90
25138;DHT22;13112;50.986;4.354;2022-07-05T05:56:55;17.70;99.90
25138;DHT22;13112;50.986;4.354;2022-07-05T05:59:21;17.80;99.90
25138;DHT22;13112;50.986;4.354;2022-07-05T06:01:47;18.10;99.90
25138;DHT22;13112;50.986;4.354;2022-07-05T06:04:12;18.60;99.90
25138;DHT22;13112;50.986;4.354;2022-07-05T06:06:38;19.40;99.90
25138;DHT22;13112;50.986;4.354;2022-07-05T06:09:04;20.10;99.90
25138;DHT22;13112;50.986;4.354;2022-07-05T06:11:29;20.70;99.90
25138;DHT22;13112;50.986;4.354;2022-07-05T06:13:55;21.30;99.90
25138;DHT22;13112;50.986;4.354;2022-07-05T06:16:21;21.60;99.90
25138;DHT22;13112;50.986;4.354;2022-07-05T06:18:47;22.20;99.90
25138;DHT22;13112;50.986;4.354;2022-07-05T06:21:12;22.70;99.90
25138;DHT22;13112;50.986;4.354;2022-07-05T06:23:38;23.20;99.90
25138;DHT22;13112;50.986;4.354;2022-07-05T06:26:04;23.40;99.90
25138;DHT22;13112;50.986;4.354;2022-07-05T06:28:29;24.10;99.90
25138;DHT22;13112;50.986;4.354;2022-07-05T06:30:57;24.50;99.90
25138;DHT22;13112;50.986;4.354;2022-07-05T06:33:23;24.70;99.90
25138;DHT22;13112;50.986;4.354;2022-07-05T06:35:48;25.00;99.90
25138;DHT22;13112;50.986;4.354;2022-07-05T06:38:14;24.50;99.90
25138;DHT22;13112;50.986;4.354;2022-07-05T06:40:41;24.30;99.90
25138;DHT22;13112;50.986;4.354;2022-07-05T06:43:09;24.50;99.90
25138;DHT22;13112;50.986;4.354;2022-07-05T06:45:35;24.30;99.90
25138;DHT22;13112;50.986;4.354;2022-07-05T06:48:03;24.10;99.90
25138;DHT22;13112;50.986;4.354;2022-07-05T06:50:31;24.80;99.90
25138;DHT22;13112;50.986;4.354;2022-07-05T06:52:57;25.50;99.90
25138;DHT22;13112;50.986;4.354;2022-07-05T06:55:23;24.20;99.90
25138;DHT22;13112;50.986;4.354;2022-07-05T06:58:00;24.20;99.90
25138;DHT22;13112;50.986;4.354;2022-07-05T07:00:26;23.30;99.90
25138;DHT22;13112;50.986;4.354;2022-07-05T07:02:52;23.40;99.90
25138;DHT22;13112;50.986;4.354;2022-07-05T07:05:18;22.60;99.90
25138;DHT22;13112;50.986;4.354;2022-07-05T07:07:44;23.40;99.90
25138;DHT22;13112;50.986;4.354;2022-07-05T07:10:28;24.70;99.90
25138;DHT22;13112;50.986;4.354;2022-07-05T07:12:53;25.90;99.90
25138;DHT22;13112;50.986;4.354;2022-07-05T07:15:19;26.70;99.90
25138;DHT22;13112;50.986;4.354;2022-07-05T07:17:45;26.70;99.90
25138;DHT22;13112;50.986;4.354;2022-07-05T07:20:11;27.50;99.90
25138;DHT22;13112;50.986;4.354;2022-07-05T07:22:36;28.60;99.90
25138;DHT22;13112;50.986;4.354;2022-07-05T07:25:02;25.90;99.90
25138;DHT22;13112;50.986;4.354;2022-07-05T07:27:30;25.60;99.90
25138;DHT22;13112;50.986;4.354;2022-07-05T07:29:59;27.00;99.90
25138;DHT22;13112;50.986;4.354;2022-07-05T07:32:24;25.70;99.90
25138;DHT22;13112;50.986;4.354;2022-07-05T07:34:50;25.60;99.90
25138;DHT22;13112;50.986;4.354;2022-07-05T07:37:16;26.00;99.90
25138;DHT22;13112;50.986;4.354;2022-07-05T07:39:43;26.30;99.90
25138;DHT22;13112;50.986;4.354;2022-07-05T07:42:09;26.10;99.90
25138;DHT22;13112;50.986;4.354;2022-07-05T07:44:34;26.40;99.90
25138;DHT22;13112;50.986;4.354;2022-07-05T07:47:00;26.60;99.90
25138;DHT22;13112;50.986;4.354;2022-07-05T07:49:25;27.10;99.90
25138;DHT22;13112;50.986;4.354;2022-07-05T07:51:52;27.50;99.90
25138;DHT22;13112;50.986;4.354;2022-07-05T07:54:17;27.70;99.90
25138;DHT22;13112;50.986;4.354;2022-07-05T07:56:43;28.40;99.90
25138;DHT22;13112;50.986;4.354;2022-07-05T07:59:10;28.20;99.90
25138;DHT22;13112;50.986;4.354;2022-07-05T08:01:36;27.80;99.90
25138;DHT22;13112;50.986;4.354;2022-07-05T08:04:01;27.80;99.90
25138;DHT22;13112;50.986;4.354;2022-07-05T08:06:27;28.30;99.90
25138;DHT22;13112;50.986;4.354;2022-07-05T08:08:53;28.80;99.90
25138;DHT22;13112;50.986;4.354;2022-07-05T08:11:18;29.50;99.90
25138;DHT22;13112;50.986;4.354;2022-07-05T08:13:44;30.50;99.90
25138;DHT22;13112;50.986;4.354;2022-07-05T08:16:10;31.20;99.90
25138;DHT22;13112;50.986;4.354;2022-07-05T08:18:36;31.00;99.10
25138;DHT22;13112;50.986;4.354;2022-07-05T08:21:21;31.10;99.10
25138;DHT22;13112;50.986;4.354;2022-07-05T08:24:07;31.00;97.30
25138;DHT22;13112;50.986;4.354;2022-07-05T08:26:34;31.60;97.10
25138;DHT22;13112;50.986;4.354;2022-07-05T08:29:01;31.40;96.40
25138;DHT22;13112;50.986;4.354;2022-07-05T08:31:32;30.30;95.50
25138;DHT22;13112;50.986;4.354;2022-07-05T08:33:58;29.40;96.90
25138;DHT22;13112;50.986;4.354;2022-07-05T08:36:24;30.30;97.10
25138;DHT22;13112;50.986;4.354;2022-07-05T08:38:50;31.10;96.50
25138;DHT22;13112;50.986;4.354;2022-07-05T08:41:19;32.00;94.70
25138;DHT22;13112;50.986;4.354;2022-07-05T08:43:46;32.30;93.80
25138;DHT22;13112;50.986;4.354;2022-07-05T08:46:12;32.40;93.80
25138;DHT22;13112;50.986;4.354;2022-07-05T08:48:41;33.30;93.00
25138;DHT22;13112;50.986;4.354;2022-07-05T08:51:12;33.30;92.00
25138;DHT22;13112;50.986;4.354;2022-07-05T08:53:40;33.40;91.50
25138;DHT22;13112;50.986;4.354;2022-07-05T08:56:10;32.80;91.40
25138;DHT22;13112;50.986;4.354;2022-07-05T08:58:36;32.70;91.20
25138;DHT22;13112;50.986;4.354;2022-07-05T09:01:03;30.90;91.70
25138;DHT22;13112;50.986;4.354;2022-07-05T09:03:47;30.40;93.30
25138;DHT22;13112;50.986;4.354;2022-07-05T09:06:17;29.10;93.50
25138;DHT22;13112;50.986;4.354;2022-07-05T09:08:43;28.70;95.40
25138;DHT22;13112;50.986;4.354;2022-07-05T09:11:12;29.40;94.70
25138;DHT22;13112;50.986;4.354;2022-07-05T09:13:40;30.50;94.80
25138;DHT22;13112;50.986;4.354;2022-07-05T09:16:07;31.90;93.10
25138;DHT22;13112;50.986;4.354;2022-07-05T09:18:50;32.00;91.40
25138;DHT22;13112;50.986;4.354;2022-07-05T09:21:27;31.50;92.50
25138;DHT22;13112;50.986;4.354;2022-07-05T09:24:01;32.60;92.10
25138;DHT22;13112;50.986;4.354;2022-07-05T09:26:38;33.00;91.60
25138;DHT22;13112;50.986;4.354;2022-07-05T09:29:11;33.10;91.00
25138;DHT22;13112;50.986;4.354;2022-07-05T09:31:39;34.60;89.30
25138;DHT22;13112;50.986;4.354;2022-07-05T09:34:14;35.90;85.90
25138;DHT22;13112;50.986;4.354;2022-07-05T09:39:13;37.40;75.90
25138;DHT22;13112;50.986;4.354;2022-07-05T09:41:38;36.30;74.90
25138;DHT22;13112;50.986;4.354;2022-07-05T09:44:04;34.80;76.40
25138;DHT22;13112;50.986;4.354;2022-07-05T09:46:31;34.00;78.30
25138;DHT22;13112;50.986;4.354;2022-07-05T09:48:57;33.50;78.80
25138;DHT22;13112;50.986;4.354;2022-07-05T09:51:22;32.90;80.20
25138;DHT22;13112;50.986;4.354;2022-07-05T09:53:52;32.10;79.90
25138;DHT22;13112;50.986;4.354;2022-07-05T09:56:18;31.70;80.80
25138;DHT22;13112;50.986;4.354;2022-07-05T09:58:45;31.20;83.10
25138;DHT22;13112;50.986;4.354;2022-07-05T10:01:30;31.10;85.70
25138;DHT22;13112;50.986;4.354;2022-07-05T10:03:58;31.30;87.10
25138;DHT22;13112;50.986;4.354;2022-07-05T10:06:26;31.10;84.00
25138;DHT22;13112;50.986;4.354;2022-07-05T10:08:55;31.20;85.80
25138;DHT22;13112;50.986;4.354;2022-07-05T10:11:22;30.90;85.50
25138;DHT22;13112;50.986;4.354;2022-07-05T10:13:49;30.10;86.70
25138;DHT22;13112;50.986;4.354;2022-07-05T10:16:17;29.50;88.40
25138;DHT22;13112;50.986;4.354;2022-07-05T10:18:45;28.90;90.10
25138;DHT22;13112;50.986;4.354;2022-07-05T10:21:16;28.40;90.50
25138;DHT22;13112;50.986;4.354;2022-07-05T10:23:49;28.30;91.90
25138;DHT22;13112;50.986;4.354;2022-07-05T10:26:16;29.70;91.90
25138;DHT22;13112;50.986;4.354;2022-07-05T10:28:51;31.90;88.90
25138;DHT22;13112;50.986;4.354;2022-07-05T10:31:17;32.40;85.70
25138;DHT22;13112;50.986;4.354;2022-07-05T10:33:44;33.70;79.80
25138;DHT22;13112;50.986;4.354;2022-07-05T10:36:12;31.90;81.20
25138;DHT22;13112;50.986;4.354;2022-07-05T10:38:42;32.80;82.60
25138;DHT22;13112;50.986;4.354;2022-07-05T10:41:12;33.40;81.10
25138;DHT22;13112;50.986;4.354;2022-07-05T10:43:42;33.30;79.40
25138;DHT22;13112;50.986;4.354;2022-07-05T10:46:08;33.60;78.80
25138;DHT22;13112;50.986;4.354;2022-07-05T10:48:34;35.00;76.50
25138;DHT22;13112;50.986;4.354;2022-07-05T10:51:13;35.10;74.60
25138;DHT22;13112;50.986;4.354;2022-07-05T10:58:37;33.10;78.50
25138;DHT22;13112;50.986;4.354;2022-07-05T11:03:53;31.40;80.60
25138;DHT22;13112;50.986;4.354;2022-07-05T11:06:25;30.60;82.20
25138;DHT22;13112;50.986;4.354;2022-07-05T11:11:33;30.00;84.80
25138;DHT22;13112;50.986;4.354;2022-07-05T11:14:04;31.60;84.00
25138;DHT22;13112;50.986;4.354;2022-07-05T11:22:26;31.80;84.00
25138;DHT22;13112;50.986;4.354;2022-07-05T11:24:53;33.30;79.50
25138;DHT22;13112;50.986;4.354;2022-07-05T11:27:20;34.90;75.80
25138;DHT22;13112;50.986;4.354;2022-07-05T11:29:50;34.30;77.10
25138;DHT22;13112;50.986;4.354;2022-07-05T11:32:20;32.80;78.70
25138;DHT22;13112;50.986;4.354;2022-07-05T11:34:52;32.20;78.90
25138;DHT22;13112;50.986;4.354;2022-07-05T11:37:27;32.10;81.20
25138;DHT22;13112;50.986;4.354;2022-07-05T11:42:32;34.30;78.20
25138;DHT22;13112;50.986;4.354;2022-07-05T11:45:05;35.30;73.90
25138;DHT22;13112;50.986;4.354;2022-07-05T11:47:30;36.30;71.40
25138;DHT22;13112;50.986;4.354;2022-07-05T11:49:57;36.00;70.90
25138;DHT22;13112;50.986;4.354;2022-07-05T11:54:52;35.30;69.80
25138;DHT22;13112;50.986;4.354;2022-07-05T11:57:19;33.70;72.20
25138;DHT22;13112;50.986;4.354;2022-07-05T11:59:45;32.10;76.10
25138;DHT22;13112;50.986;4.354;2022-07-05T12:02:11;31.00;79.90
25138;DHT22;13112;50.986;4.354;2022-07-05T12:04:37;30.90;81.40
25138;DHT22;13112;50.986;4.354;2022-07-05T12:07:03;30.90;81.40
25138;DHT22;13112;50.986;4.354;2022-07-05T12:09:31;32.30;80.50
25138;DHT22;13112;50.986;4.354;2022-07-05T12:12:22;32.90;78.60
25138;DHT22;13112;50.986;4.354;2022-07-05T12:15:14;31.90;79.00
25138;DHT22;13112;50.986;4.354;2022-07-05T12:17:42;30.70;80.30
25138;DHT22;13112;50.986;4.354;2022-07-05T12:20:13;29.90;81.60
25138;DHT22;13112;50.986;4.354;2022-07-05T12:22:43;29.50;82.90
25138;DHT22;13112;50.986;4.354;2022-07-05T12:25:13;29.40;85.00
25138;DHT22;13112;50.986;4.354;2022-07-05T12:27:40;30.40;82.00
25138;DHT22;13112;50.986;4.354;2022-07-05T12:30:08;31.40;81.00
25138;DHT22;13112;50.986;4.354;2022-07-05T12:32:56;32.40;78.40
25138;DHT22;13112;50.986;4.354;2022-07-05T12:38:06;29.60;81.90
25138;DHT22;13112;50.986;4.354;2022-07-05T12:40:33;29.20;83.00
25138;DHT22;13112;50.986;4.354;2022-07-05T12:43:07;30.10;83.20
25138;DHT22;13112;50.986;4.354;2022-07-05T12:45:33;31.60;80.60
25138;DHT22;13112;50.986;4.354;2022-07-05T12:48:01;31.60;77.30
25138;DHT22;13112;50.986;4.354;2022-07-05T12:50:29;31.10;79.60
25138;DHT22;13112;50.986;4.354;2022-07-05T12:52:59;30.90;78.60
25138;DHT22;13112;50.986;4.354;2022-07-05T12:55:34;30.70;79.50
25138;DHT22;13112;50.986;4.354;2022-07-05T12:58:18;31.90;79.30
25138;DHT22;13112;50.986;4.354;2022-07-05T13:00:44;32.40;76.10
25138;DHT22;13112;50.986;4.354;2022-07-05T13:03:09;32.10;77.30
25138;DHT22;13112;50.986;4.354;2022-07-05T13:05:35;31.60;77.60
25138;DHT22;13112;50.986;4.354;2022-07-05T13:08:01;31.00;78.50
25138;DHT22;13112;50.986;4.354;2022-07-05T13:10:28;30.30;80.30
25138;DHT22;13112;50.986;4.354;2022-07-05T13:12:57;29.70;81.10
25138;DHT22;13112;50.986;4.354;2022-07-05T13:15:24;29.20;83.00
25138;DHT22;13112;50.986;4.354;2022-07-05T13:17:49;29.30;84.00
25138;DHT22;13112;50.986;4.354;2022-07-05T13:20:16;30.70;82.60
25138;DHT22;13112;50.986;4.354;2022-07-05T13:22:43;31.80;78.50
25138;DHT22;13112;50.986;4.354;2022-07-05T13:25:09;32.80;77.10
25138;DHT22;13112;50.986;4.354;2022-07-05T13:27:37;33.10;75.30
25138;DHT22;13112;50.986;4.354;2022-07-05T13:30:04;33.20;73.10
25138;DHT22;13112;50.986;4.354;2022-07-05T13:32:30;32.90;74.80
25138;DHT22;13112;50.986;4.354;2022-07-05T13:34:56;33.30;75.40
25138;DHT22;13112;50.986;4.354;2022-07-05T13:37:22;33.10;72.60
25138;DHT22;13112;50.986;4.354;2022-07-05T13:39:48;32.40;72.80
25138;DHT22;13112;50.986;4.354;2022-07-05T13:42:13;30.90;74.90
25138;DHT22;13112;50.986;4.354;2022-07-05T13:44:39;30.00;77.20
25138;DHT22;13112;50.986;4.354;2022-07-05T13:47:05;29.40;79.40
25138;DHT22;13112;50.986;4.354;2022-07-05T13:49:31;28.60;80.40
25138;DHT22;13112;50.986;4.354;2022-07-05T13:51:56;29.30;81.80
25138;DHT22;13112;50.986;4.354;2022-07-05T13:54:23;30.70;78.40
25138;DHT22;13112;50.986;4.354;2022-07-05T13:56:49;30.60;77.80
25138;DHT22;13112;50.986;4.354;2022-07-05T13:59:15;29.90;76.90
25138;DHT22;13112;50.986;4.354;2022-07-05T14:01:40;29.50;78.40
25138;DHT22;13112;50.986;4.354;2022-07-05T14:04:06;28.80;81.40
25138;DHT22;13112;50.986;4.354;2022-07-05T14:06:32;28.50;80.00
25138;DHT22;13112;50.986;4.354;2022-07-05T14:09:00;28.00;81.50
25138;DHT22;13112;50.986;4.354;2022-07-05T14:11:26;27.70;81.90
25138;DHT22;13112;50.986;4.354;2022-07-05T14:13:55;27.40;84.90
25138;DHT22;13112;50.986;4.354;2022-07-05T14:16:22;27.40;84.80
25138;DHT22;13112;50.986;4.354;2022-07-05T14:18:48;27.30;83.30
25138;DHT22;13112;50.986;4.354;2022-07-05T14:21:15;27.10;84.90
25138;DHT22;13112;50.986;4.354;2022-07-05T14:23:42;26.90;85.70
25138;DHT22;13112;50.986;4.354;2022-07-05T14:26:08;26.90;85.20
25138;DHT22;13112;50.986;4.354;2022-07-05T14:28:37;26.70;85.60
25138;DHT22;13112;50.986;4.354;2022-07-05T14:31:03;26.30;85.70
25138;DHT22;13112;50.986;4.354;2022-07-05T14:33:29;25.80;86.00
25138;DHT22;13112;50.986;4.354;2022-07-05T14:35:54;25.50;87.00
25138;DHT22;13112;50.986;4.354;2022-07-05T14:38:20;25.20;87.60
25138;DHT22;13112;50.986;4.354;2022-07-05T14:40:45;25.20;88.30
25138;DHT22;13112;50.986;4.354;2022-07-05T14:43:11;25.20;87.10
25138;DHT22;13112;50.986;4.354;2022-07-05T14:45:37;25.10;89.10
25138;DHT22;13112;50.986;4.354;2022-07-05T14:48:03;25.00;88.50
25138;DHT22;13112;50.986;4.354;2022-07-05T14:50:28;25.00;89.60
25138;DHT22;13112;50.986;4.354;2022-07-05T14:52:54;25.20;88.30
25138;DHT22;13112;50.986;4.354;2022-07-05T14:55:20;25.30;86.90
25138;DHT22;13112;50.986;4.354;2022-07-05T14:57:45;25.40;87.60
25138;DHT22;13112;50.986;4.354;2022-07-05T15:00:13;25.50;88.70
25138;DHT22;13112;50.986;4.354;2022-07-05T15:02:41;25.70;87.30
25138;DHT22;13112;50.986;4.354;2022-07-05T15:05:07;25.70;86.70
25138;DHT22;13112;50.986;4.354;2022-07-05T15:07:35;25.70;86.20
25138;DHT22;13112;50.986;4.354;2022-07-05T15:10:01;26.00;87.20
25138;DHT22;13112;50.986;4.354;2022-07-05T15:12:27;26.20;86.10
25138;DHT22;13112;50.986;4.354;2022-07-05T15:14:52;26.20;85.20
25138;DHT22;13112;50.986;4.354;2022-07-05T15:17:18;25.70;84.20
25138;DHT22;13112;50.986;4.354;2022-07-05T15:19:43;25.40;85.20
25138;DHT22;13112;50.986;4.354;2022-07-05T15:22:09;25.40;86.00
25138;DHT22;13112;50.986;4.354;2022-07-05T15:24:38;25.50;85.30
25138;DHT22;13112;50.986;4.354;2022-07-05T15:27:04;25.20;86.10
25138;DHT22;13112;50.986;4.354;2022-07-05T15:29:30;24.90;87.70
25138;DHT22;13112;50.986;4.354;2022-07-05T15:31:56;24.90;88.30
25138;DHT22;13112;50.986;4.354;2022-07-05T15:34:23;24.80;88.40
25138;DHT22;13112;50.986;4.354;2022-07-05T15:36:49;24.70;87.00
25138;DHT22;13112;50.986;4.354;2022-07-05T15:39:15;24.50;88.40
25138;DHT22;13112;50.986;4.354;2022-07-05T15:41:40;24.50;87.90
25138;DHT22;13112;50.986;4.354;2022-07-05T15:44:06;24.40;89.10
25138;DHT22;13112;50.986;4.354;2022-07-05T15:46:32;24.40;87.30
25138;DHT22;13112;50.986;4.354;2022-07-05T15:49:16;24.40;88.60
25138;DHT22;13112;50.986;4.354;2022-07-05T15:51:43;24.30;88.30
25138;DHT22;13112;50.986;4.354;2022-07-05T15:54:09;24.20;87.90
25138;DHT22;13112;50.986;4.354;2022-07-05T15:56:35;23.90;87.30